sensor_id;sensor_type;location;lat;lon;timestamp;temperature;humidity
19908;DHT22;10116;53.112;7.356;2024-03-23T00:54:49;24.80;91.60
19908;DHT22;10116;53.112;7.356;2024-03-23T00:57:15;24.80;92.90
19908;DHT22;10116;53.112;7.356;2024-03-23T00:59:41;24.80;91.80
19908;DHT22;10116;53.112;7.356;2024-03-23T01:02:06;24.80;92.10
19908;DHT22;10116;53.112;7.356;2024-03-23T01:04:32;24.80;91.70
19908;DHT22;10116;53.112;7.356;2024-03-23T01:06:57;24.80;91.70
19908;DHT22;10116;53.112;7.356;2024-03-23T01:09:23;24.80;91.80
19908;DHT22;10116;53.112;7.356;2024-03-23T01:11:49;24.80;92.40
19908;DHT22;10116;53.112;7.356;2024-03-23T01:14:14;24.80;91.80
19908;DHT22;10116;53.112;7.356;2024-03-23T01:16:40;24.80;91.70
19908;DHT22;10116;53.112;7.356;2024-03-23T01:19:05;24.80;92.10
19908;DHT22;10116;53.112;7.356;2024-03-23T01:21:31;24.80;91.60
19908;DHT22;10116;53.112;7.356;2024-03-23T01:23:57;24.80;91.80
19908;DHT22;10116;53.112;7.356;2024-03-23T01:26:23;24.80;91.80
19908;DHT22;10116;53.112;7.356;2024-03-23T01:28:48;24.80;92.10
19908;DHT22;10116;53.112;7.356;2024-03-23T01:31:14;24.80;91.70
19908;DHT22;10116;53.112;7.356;2024-03-23T01:33:41;24.80;92.00
19908;DHT22;10116;53.112;7.356;2024-03-23T01:36:07;24.80;91.90
19908;DHT22;10116;53.112;7.356;2024-03-23T01:38:32;24.90;91.70
19908;DHT22;10116;53.112;7.356;2024-03-23T01:40:58;24.90;91.70
19908;DHT22;10116;53.112;7.356;2024-03-23T01:43:24;24.90;91.70
19908;DHT22;10116;53.112;7.356;2024-03-23T01:45:50;24.90;91.70
19908;DHT22;10116;53.112;7.356;2024-03-23T01:48:16;24.80;91.90
19908;DHT22;10116;53.112;7.356;2024-03-23T01:50:41;24.90;91.80
19908;DHT22;10116;53.112;7.356;2024-03-23T01:53:07;24.90;91.60
19908;DHT22;10116;53.112;7.356;2024-03-23T01:55:33;24.80;91.50
19908;DHT22;10116;53.112;7.356;2024-03-23T01:57:59;24.90;91.70
19908;DHT22;10116;53.112;7.356;2024-03-23T02:00:25;24.90;91.60
19908;DHT22;10116;53.112;7.356;2024-03-23T02:02:52;24.90;92.20
19908;DHT22;10116;53.112;7.356;2024-03-23T02:05:18;24.80;98.60
19908;DHT22;10116;53.112;7.356;2024-03-23T02:07:43;24.80;91.60
19908;DHT22;10116;53.112;7.356;2024-03-23T02:10:10;24.90;91.40
19908;DHT22;10116;53.112;7.356;2024-03-23T02:12:36;24.90;91.70
19908;DHT22;10116;53.112;7.356;2024-03-23T02:15:03;24.90;92.10
19908;DHT22;10116;53.112;7.356;2024-03-23T02:17:31;24.90;91.80
19908;DHT22;10116;53.112;7.356;2024-03-23T02:19:57;24.90;91.60
19908;DHT22;10116;53.112;7.356;2024-03-23T02:22:23;24.90;92.00
19908;DHT22;10116;53.112;7.356;2024-03-23T02:24:48;24.90;91.60
19908;DHT22;10116;53.112;7.356;2024-03-23T02:27:14;24.90;91.50
19908;DHT22;10116;53.112;7.356;2024-03-23T02:29:39;24.90;98.70
19908;DHT22;10116;53.112;7.356;2024-03-23T02:32:06;24.90;91.60
19908;DHT22;10116;53.112;7.356;2024-03-23T02:34:31;24.90;92.00
19908;DHT22;10116;53.112;7.356;2024-03-23T02:36:57;24.90;91.40
19908;DHT22;10116;53.112;7.356;2024-03-23T02:39:23;24.90;91.50
19908;DHT22;10116;53.112;7.356;2024-03-23T02:41:48;24.80;90.90
19908;DHT22;10116;53.112;7.356;2024-03-23T02:44:14;24.90;91.10
19908;DHT22;10116;53.112;7.356;2024-03-23T02:46:40;24.80;91.00
19908;DHT22;10116;53.112;7.356;2024-03-23T02:49:05;24.80;91.20
19908;DHT22;10116;53.112;7.356;2024-03-23T02:51:31;24.80;90.60
19908;DHT22;10116;53.112;7.356;2024-03-23T02:53:57;24.80;90.70
19908;DHT22;10116;53.112;7.356;2024-03-23T02:56:23;24.80;90.70
19908;DHT22;10116;53.112;7.356;2024-03-23T02:58:48;24.80;90.60
19908;DHT22;10116;53.112;7.356;2024-03-23T03:01:14;24.80;90.60
19908;DHT22;10116;53.112;7.356;2024-03-23T03:03:40;24.80;90.50
19908;DHT22;10116;53.112;7.356;2024-03-23T03:06:05;24.80;90.90
19908;DHT22;10116;53.112;7.356;2024-03-23T03:08:31;24.80;90.40
19908;DHT22;10116;53.112;7.356;2024-03-23T03:10:57;24.80;90.30
19908;DHT22;10116;53.112;7.356;2024-03-23T03:13:22;24.80;90.40
19908;DHT22;10116;53.112;7.356;2024-03-23T03:15:48;24.80;90.10
19908;DHT22;10116;53.112;7.356;2024-03-23T03:18:13;24.80;90.40
19908;DHT22;10116;53.112;7.356;2024-03-23T03:20:40;24.80;90.00
19908;DHT22;10116;53.112;7.356;2024-03-23T03:23:06;24.80;89.70
19908;DHT22;10116;53.112;7.356;2024-03-23T03:25:32;24.80;90.10
19908;DHT22;10116;53.112;7.356;2024-03-23T03:27:58;24.80;89.70
19908;DHT22;10116;53.112;7.356;2024-03-23T03:30:24;24.80;90.20
19908;DHT22;10116;53.112;7.356;2024-03-23T03:32:54;24.80;89.70
19908;DHT22;10116;53.112;7.356;2024-03-23T03:35:20;24.80;90.00
19908;DHT22;10116;53.112;7.356;2024-03-23T03:37:46;24.70;90.10
19908;DHT22;10116;53.112;7.356;2024-03-23T03:40:12;24.70;89.60
19908;DHT22;10116;53.112;7.356;2024-03-23T03:42:40;24.70;90.00
19908;DHT22;10116;53.112;7.356;2024-03-23T03:45:06;24.70;89.20
19908;DHT22;10116;53.112;7.356;2024-03-23T03:47:32;24.70;89.30
19908;DHT22;10116;53.112;7.356;2024-03-23T03:49:58;24.70;89.70
19908;DHT22;10116;53.112;7.356;2024-03-23T03:52:23;24.70;89.50
19908;DHT22;10116;53.112;7.356;2024-03-23T03:54:49;24.70;89.10
19908;DHT22;10116;53.112;7.356;2024-03-23T03:57:14;24.70;88.80
19908;DHT22;10116;53.112;7.356;2024-03-23T03:59:40;24.70;89.60
19908;DHT22;10116;53.112;7.356;2024-03-23T04:02:06;24.70;89.70
19908;DHT22;10116;53.112;7.356;2024-03-23T04:04:31;24.70;89.40
19908;DHT22;10116;53.112;7.356;2024-03-23T04:07:01;24.70;89.20
19908;DHT22;10116;53.112;7.356;2024-03-23T04:09:27;24.70;89.60
19908;DHT22;10116;53.112;7.356;2024-03-23T04:11:52;24.70;88.70
19908;DHT22;10116;53.112;7.356;2024-03-23T04:14:18;24.70;88.30
19908;DHT22;10116;53.112;7.356;2024-03-23T04:16:44;24.70;88.20
19908;DHT22;10116;53.112;7.356;2024-03-23T04:19:09;24.70;88.10
19908;DHT22;10116;53.112;7.356;2024-03-23T04:21:36;24.70;88.60
19908;DHT22;10116;53.112;7.356;2024-03-23T04:24:03;24.70;88.20
19908;DHT22;10116;53.112;7.356;2024-03-23T04:26:28;24.70;88.30
19908;DHT22;10116;53.112;7.356;2024-03-23T04:28:54;24.70;88.10
19908;DHT22;10116;53.112;7.356;2024-03-23T04:31:20;24.70;87.90
19908;DHT22;10116;53.112;7.356;2024-03-23T04:33:45;24.70;88.00
19908;DHT22;10116;53.112;7.356;2024-03-23T04:36:11;24.70;88.30
19908;DHT22;10116;53.112;7.356;2024-03-23T04:38:36;24.70;88.00
19908;DHT22;10116;53.112;7.356;2024-03-23T04:41:02;24.70;88.20
19908;DHT22;10116;53.112;7.356;2024-03-23T04:43:28;24.80;89.20
19908;DHT22;10116;53.112;7.356;2024-03-23T04:45:54;24.80;89.10
19908;DHT22;10116;53.112;7.356;2024-03-23T04:48:21;24.70;88.70
19908;DHT22;10116;53.112;7.356;2024-03-23T04:50:48;24.80;89.90
19908;DHT22;10116;53.112;7.356;2024-03-23T04:53:14;24.80;89.90
19908;DHT22;10116;53.112;7.356;2024-03-23T04:55:41;24.80;88.80
19908;DHT22;10116;53.112;7.356;2024-03-23T04:58:07;24.80;90.10
19908;DHT22;10116;53.112;7.356;2024-03-23T05:00:33;24.80;89.50
19908;DHT22;10116;53.112;7.356;2024-03-23T05:02:58;24.80;89.00
19908;DHT22;10116;53.112;7.356;2024-03-23T05:05:24;24.80;89.20
19908;DHT22;10116;53.112;7.356;2024-03-23T05:07:50;24.80;89.20
19908;DHT22;10116;53.112;7.356;2024-03-23T05:10:15;24.80;89.00
19908;DHT22;10116;53.112;7.356;2024-03-23T05:12:42;24.80;88.50
19908;DHT22;10116;53.112;7.356;2024-03-23T05:15:07;24.80;89.00
19908;DHT22;10116;53.112;7.356;2024-03-23T05:17:33;24.80;88.00
19908;DHT22;10116;53.112;7.356;2024-03-23T05:20:00;24.70;87.30
19908;DHT22;10116;53.112;7.356;2024-03-23T05:22:25;24.70;88.50
19908;DHT22;10116;53.112;7.356;2024-03-23T05:24:53;24.70;87.10
19908;DHT22;10116;53.112;7.356;2024-03-23T05:27:18;24.70;88.60
19908;DHT22;10116;53.112;7.356;2024-03-23T05:29:44;24.60;86.90
19908;DHT22;10116;53.112;7.356;2024-03-23T05:32:09;24.60;87.50
19908;DHT22;10116;53.112;7.356;2024-03-23T05:34:35;24.60;85.90
19908;DHT22;10116;53.112;7.356;2024-03-23T05:37:01;24.60;85.90
19908;DHT22;10116;53.112;7.356;2024-03-23T05:39:26;24.60;85.90
19908;DHT22;10116;53.112;7.356;2024-03-23T05:41:52;24.60;85.30
19908;DHT22;10116;53.112;7.356;2024-03-23T05:44:18;24.60;85.50
19908;DHT22;10116;53.112;7.356;2024-03-23T05:46:44;24.60;86.80
19908;DHT22;10116;53.112;7.356;2024-03-23T05:49:14;24.60;85.40
19908;DHT22;10116;53.112;7.356;2024-03-23T05:51:39;24.60;84.90
19908;DHT22;10116;53.112;7.356;2024-03-23T05:54:05;24.60;85.90
19908;DHT22;10116;53.112;7.356;2024-03-23T05:56:31;24.60;85.20
19908;DHT22;10116;53.112;7.356;2024-03-23T05:58:57;24.60;85.30
19908;DHT22;10116;53.112;7.356;2024-03-23T06:01:22;24.60;85.60
19908;DHT22;10116;53.112;7.356;2024-03-23T06:03:48;24.60;85.70
19908;DHT22;10116;53.112;7.356;2024-03-23T06:06:14;24.60;85.30
19908;DHT22;10116;53.112;7.356;2024-03-23T06:08:39;24.60;85.90
19908;DHT22;10116;53.112;7.356;2024-03-23T06:11:05;24.60;85.40
19908;DHT22;10116;53.112;7.356;2024-03-23T06:13:34;24.60;85.50
19908;DHT22;10116;53.112;7.356;2024-03-23T06:16:03;24.60;88.30
19908;DHT22;10116;53.112;7.356;2024-03-23T06:18:29;24.60;85.50
19908;DHT22;10116;53.112;7.356;2024-03-23T06:20:55;24.60;85.80
19908;DHT22;10116;53.112;7.356;2024-03-23T06:23:20;24.60;86.90
19908;DHT22;10116;53.112;7.356;2024-03-23T06:25:46;24.30;80.70
19908;DHT22;10116;53.112;7.356;2024-03-23T06:28:13;24.30;77.50
19908;DHT22;10116;53.112;7.356;2024-03-23T06:30:39;24.30;77.70
19908;DHT22;10116;53.112;7.356;2024-03-23T06:33:05;24.30;77.70
19908;DHT22;10116;53.112;7.356;2024-03-23T06:35:31;24.30;77.10
19908;DHT22;10116;53.112;7.356;2024-03-23T06:37:57;24.30;78.20
19908;DHT22;10116;53.112;7.356;2024-03-23T06:40:24;24.30;78.20
19908;DHT22;10116;53.112;7.356;2024-03-23T06:42:50;24.40;78.70
19908;DHT22;10116;53.112;7.356;2024-03-23T06:45:16;24.40;78.00
19908;DHT22;10116;53.112;7.356;2024-03-23T06:47:42;24.40;77.50
19908;DHT22;10116;53.112;7.356;2024-03-23T06:50:08;24.50;76.90
19908;DHT22;10116;53.112;7.356;2024-03-23T06:52:35;24.50;78.70
19908;DHT22;10116;53.112;7.356;2024-03-23T06:55:01;24.50;77.40
19908;DHT22;10116;53.112;7.356;2024-03-23T06:57:29;24.60;77.10
19908;DHT22;10116;53.112;7.356;2024-03-23T06:59:55;24.60;77.80
19908;DHT22;10116;53.112;7.356;2024-03-23T07:02:21;24.60;77.90
19908;DHT22;10116;53.112;7.356;2024-03-23T07:04:46;24.60;77.70
19908;DHT22;10116;53.112;7.356;2024-03-23T07:07:12;24.60;78.30
19908;DHT22;10116;53.112;7.356;2024-03-23T07:09:38;24.70;78.20
19908;DHT22;10116;53.112;7.356;2024-03-23T07:12:04;24.70;77.90
19908;DHT22;10116;53.112;7.356;2024-03-23T07:14:30;24.70;76.80
19908;DHT22;10116;53.112;7.356;2024-03-23T07:16:55;24.70;76.90
19908;DHT22;10116;53.112;7.356;2024-03-23T07:19:22;24.70;76.10
19908;DHT22;10116;53.112;7.356;2024-03-23T07:21:48;24.70;76.00
19908;DHT22;10116;53.112;7.356;2024-03-23T07:24:13;24.70;76.10
19908;DHT22;10116;53.112;7.356;2024-03-23T07:26:39;24.60;74.40
19908;DHT22;10116;53.112;7.356;2024-03-23T07:29:05;24.60;75.20
19908;DHT22;10116;53.112;7.356;2024-03-23T07:31:31;24.60;76.40
19908;DHT22;10116;53.112;7.356;2024-03-23T07:33:57;24.70;73.10
19908;DHT22;10116;53.112;7.356;2024-03-23T07:36:23;24.70;72.20
19908;DHT22;10116;53.112;7.356;2024-03-23T07:38:49;24.70;72.90
19908;DHT22;10116;53.112;7.356;2024-03-23T07:41:21;24.70;73.70
19908;DHT22;10116;53.112;7.356;2024-03-23T07:43:47;24.70;71.40
19908;DHT22;10116;53.112;7.356;2024-03-23T07:46:14;24.70;70.50
19908;DHT22;10116;53.112;7.356;2024-03-23T07:48:40;24.70;70.30
19908;DHT22;10116;53.112;7.356;2024-03-23T07:51:20;24.70;70.40
19908;DHT22;10116;53.112;7.356;2024-03-23T07:53:46;24.70;68.60
19908;DHT22;10116;53.112;7.356;2024-03-23T07:56:14;24.70;68.00
19908;DHT22;10116;53.112;7.356;2024-03-23T07:58:41;24.70;68.70
19908;DHT22;10116;53.112;7.356;2024-03-23T08:01:14;24.70;67.20
19908;DHT22;10116;53.112;7.356;2024-03-23T08:03:42;24.80;66.40
19908;DHT22;10116;53.112;7.356;2024-03-23T08:06:18;24.70;65.90
19908;DHT22;10116;53.112;7.356;2024-03-23T08:08:51;24.70;66.40
19908;DHT22;10116;53.112;7.356;2024-03-23T08:11:25;24.80;68.10
19908;DHT22;10116;53.112;7.356;2024-03-23T08:13:51;24.80;66.00
19908;DHT22;10116;53.112;7.356;2024-03-23T08:16:16;24.80;67.00
19908;DHT22;10116;53.112;7.356;2024-03-23T08:18:42;24.80;65.50
19908;DHT22;10116;53.112;7.356;2024-03-23T08:21:07;24.80;64.80
19908;DHT22;10116;53.112;7.356;2024-03-23T08:23:34;24.70;64.50
19908;DHT22;10116;53.112;7.356;2024-03-23T08:26:08;24.70;63.70
19908;DHT22;10116;53.112;7.356;2024-03-23T08:28:34;24.70;79.50
19908;DHT22;10116;53.112;7.356;2024-03-23T08:31:10;24.70;62.60
19908;DHT22;10116;53.112;7.356;2024-03-23T08:33:37;24.70;62.50
19908;DHT22;10116;53.112;7.356;2024-03-23T08:36:05;24.70;62.00
19908;DHT22;10116;53.112;7.356;2024-03-23T08:38:31;24.70;61.80
19908;DHT22;10116;53.112;7.356;2024-03-23T08:43:23;24.70;61.80
19908;DHT22;10116;53.112;7.356;2024-03-23T08:45:49;24.70;61.70
19908;DHT22;10116;53.112;7.356;2024-03-23T08:48:15;24.60;62.20
19908;DHT22;10116;53.112;7.356;2024-03-23T08:50:41;24.60;61.60
19908;DHT22;10116;53.112;7.356;2024-03-23T08:53:07;24.60;62.10
19908;DHT22;10116;53.112;7.356;2024-03-23T08:55:32;24.60;60.00
19908;DHT22;10116;53.112;7.356;2024-03-23T08:57:58;24.60;59.80
19908;DHT22;10116;53.112;7.356;2024-03-23T09:00:23;24.60;59.40
19908;DHT22;10116;53.112;7.356;2024-03-23T09:02:50;24.60;60.90
19908;DHT22;10116;53.112;7.356;2024-03-23T09:05:15;24.60;59.20
19908;DHT22;10116;53.112;7.356;2024-03-23T09:07:41;24.60;59.00
19908;DHT22;10116;53.112;7.356;2024-03-23T09:10:07;24.60;58.80
19908;DHT22;10116;53.112;7.356;2024-03-23T09:12:33;24.60;58.50
19908;DHT22;10116;53.112;7.356;2024-03-23T09:14:58;24.60;58.50
19908;DHT22;10116;53.112;7.356;2024-03-23T09:17:24;24.60;58.40
19908;DHT22;10116;53.112;7.356;2024-03-23T09:19:50;24.60;57.90
19908;DHT22;10116;53.112;7.356;2024-03-23T09:22:15;24.60;57.50
19908;DHT22;10116;53.112;7.356;2024-03-23T09:24:41;24.50;58.30
19908;DHT22;10116;53.112;7.356;2024-03-23T09:27:06;24.50;57.90
19908;DHT22;10116;53.112;7.356;2024-03-23T09:29:32;24.50;57.10
19908;DHT22;10116;53.112;7.356;2024-03-23T09:31:58;24.50;56.30
19908;DHT22;10116;53.112;7.356;2024-03-23T09:34:23;24.50;56.00
19908;DHT22;10116;53.112;7.356;2024-03-23T09:36:52;24.50;56.10
19908;DHT22;10116;53.112;7.356;2024-03-23T09:39:18;24.50;56.30
19908;DHT22;10116;53.112;7.356;2024-03-23T09:41:45;24.50;55.70
19908;DHT22;10116;53.112;7.356;2024-03-23T09:44:10;24.50;55.40
19908;DHT22;10116;53.112;7.356;2024-03-23T09:46:36;24.50;55.10
19908;DHT22;10116;53.112;7.356;2024-03-23T09:49:03;24.50;55.60
19908;DHT22;10116;53.112;7.356;2024-03-23T09:51:31;24.50;55.00
19908;DHT22;10116;53.112;7.356;2024-03-23T09:53:57;24.50;55.00
19908;DHT22;10116;53.112;7.356;2024-03-23T09:56:22;24.50;54.50
19908;DHT22;10116;53.112;7.356;2024-03-23T09:58:49;24.50;55.00
19908;DHT22;10116;53.112;7.356;2024-03-23T10:01:15;24.50;54.70
19908;DHT22;10116;53.112;7.356;2024-03-23T10:03:44;24.50;54.20
19908;DHT22;10116;53.112;7.356;2024-03-23T10:06:11;24.40;54.10
19908;DHT22;10116;53.112;7.356;2024-03-23T10:08:36;24.40;53.60
19908;DHT22;10116;53.112;7.356;2024-03-23T10:11:15;24.40;53.30
19908;DHT22;10116;53.112;7.356;2024-03-23T10:13:44;24.40;52.70
19908;DHT22;10116;53.112;7.356;2024-03-23T10:16:12;24.40;52.20
19908;DHT22;10116;53.112;7.356;2024-03-23T10:18:40;24.40;52.70
19908;DHT22;10116;53.112;7.356;2024-03-23T10:21:07;24.30;52.10
19908;DHT22;10116;53.112;7.356;2024-03-23T10:23:43;24.30;51.30
19908;DHT22;10116;53.112;7.356;2024-03-23T10:28:59;24.30;51.40
19908;DHT22;10116;53.112;7.356;2024-03-23T10:31:33;24.20;50.70
19908;DHT22;10116;53.112;7.356;2024-03-23T10:34:02;24.30;51.90
19908;DHT22;10116;53.112;7.356;2024-03-23T10:36:29;24.30;63.80
19908;DHT22;10116;53.112;7.356;2024-03-23T10:38:55;24.30;51.60
19908;DHT22;10116;53.112;7.356;2024-03-23T10:41:27;24.30;51.40
19908;DHT22;10116;53.112;7.356;2024-03-23T10:43:53;24.40;52.20
19908;DHT22;10116;53.112;7.356;2024-03-23T10:46:21;24.30;51.90
19908;DHT22;10116;53.112;7.356;2024-03-23T10:48:46;24.30;51.70
19908;DHT22;10116;53.112;7.356;2024-03-23T10:51:14;24.30;51.90
19908;DHT22;10116;53.112;7.356;2024-03-23T10:53:40;24.30;50.80
19908;DHT22;10116;53.112;7.356;2024-03-23T10:56:06;24.30;51.60
19908;DHT22;10116;53.112;7.356;2024-03-23T10:58:43;24.30;52.10
19908;DHT22;10116;53.112;7.356;2024-03-23T11:01:13;24.30;52.30
19908;DHT22;10116;53.112;7.356;2024-03-23T11:03:45;24.40;52.60
19908;DHT22;10116;53.112;7.356;2024-03-23T11:06:10;24.40;53.00
19908;DHT22;10116;53.112;7.356;2024-03-23T11:08:40;24.50;58.50
19908;DHT22;10116;53.112;7.356;2024-03-23T11:13:52;24.60;54.40
19908;DHT22;10116;53.112;7.356;2024-03-23T11:16:28;24.60;54.30
19908;DHT22;10116;53.112;7.356;2024-03-23T11:19:39;24.60;56.30
19908;DHT22;10116;53.112;7.356;2024-03-23T11:22:05;24.60;55.70
19908;DHT22;10116;53.112;7.356;2024-03-23T11:24:32;24.60;54.60
19908;DHT22;10116;53.112;7.356;2024-03-23T11:26:57;24.60;54.80
19908;DHT22;10116;53.112;7.356;2024-03-23T11:29:29;24.60;55.60
19908;DHT22;10116;53.112;7.356;2024-03-23T11:31:55;24.60;55.50
19908;DHT22;10116;53.112;7.356;2024-03-23T11:34:22;24.60;56.10
19908;DHT22;10116;53.112;7.356;2024-03-23T11:36:48;24.60;55.30
19908;DHT22;10116;53.112;7.356;2024-03-23T11:39:19;24.60;55.20
19908;DHT22;10116;53.112;7.356;2024-03-23T11:41:56;24.60;55.00
19908;DHT22;10116;53.112;7.356;2024-03-23T11:44:24;24.60;54.70
19908;DHT22;10116;53.112;7.356;2024-03-23T11:46:51;24.50;53.60
19908;DHT22;10116;53.112;7.356;2024-03-23T11:49:27;24.50;53.20
19908;DHT22;10116;53.112;7.356;2024-03-23T11:51:54;24.50;52.90
19908;DHT22;10116;53.112;7.356;2024-03-23T11:54:21;24.40;52.40
19908;DHT22;10116;53.112;7.356;2024-03-23T11:57:01;24.40;52.60
19908;DHT22;10116;53.112;7.356;2024-03-23T11:59:36;24.40;52.30
19908;DHT22;10116;53.112;7.356;2024-03-23T12:02:11;24.40;52.40
19908;DHT22;10116;53.112;7.356;2024-03-23T12:04:40;24.40;51.80
19908;DHT22;10116;53.112;7.356;2024-03-23T12:09:38;24.40;50.90
19908;DHT22;10116;53.112;7.356;2024-03-23T12:12:13;24.40;51.10
19908;DHT22;10116;53.112;7.356;2024-03-23T12:14:40;24.40;51.50
19908;DHT22;10116;53.112;7.356;2024-03-23T12:17:10;24.40;52.30
19908;DHT22;10116;53.112;7.356;2024-03-23T12:19:36;24.50;52.40
19908;DHT22;10116;53.112;7.356;2024-03-23T12:22:03;24.50;52.60
19908;DHT22;10116;53.112;7.356;2024-03-23T12:24:29;24.50;52.40
19908;DHT22;10116;53.112;7.356;2024-03-23T12:26:59;24.50;53.10
19908;DHT22;10116;53.112;7.356;2024-03-23T12:29:28;24.40;52.00
19908;DHT22;10116;53.112;7.356;2024-03-23T12:31:53;24.40;50.00
19908;DHT22;10116;53.112;7.356;2024-03-23T12:34:19;24.30;49.40
19908;DHT22;10116;53.112;7.356;2024-03-23T12:36:45;24.30;48.70
19908;DHT22;10116;53.112;7.356;2024-03-23T12:39:10;24.30;47.80
19908;DHT22;10116;53.112;7.356;2024-03-23T12:41:36;24.20;46.80
19908;DHT22;10116;53.112;7.356;2024-03-23T12:44:01;24.10;57.80
19908;DHT22;10116;53.112;7.356;2024-03-23T12:46:27;24.10;45.20
19908;DHT22;10116;53.112;7.356;2024-03-23T12:48:53;24.10;44.80
19908;DHT22;10116;53.112;7.356;2024-03-23T12:51:18;24.00;43.70
19908;DHT22;10116;53.112;7.356;2024-03-23T12:53:44;24.00;42.80
19908;DHT22;10116;53.112;7.356;2024-03-23T12:56:12;24.00;42.40
19908;DHT22;10116;53.112;7.356;2024-03-23T12:58:38;23.90;41.80
19908;DHT22;10116;53.112;7.356;2024-03-23T13:01:04;23.90;40.90
19908;DHT22;10116;53.112;7.356;2024-03-23T13:03:31;23.90;40.50
19908;DHT22;10116;53.112;7.356;2024-03-23T13:05:57;23.90;39.90
19908;DHT22;10116;53.112;7.356;2024-03-23T13:08:23;23.80;40.20
19908;DHT22;10116;53.112;7.356;2024-03-23T13:10:52;23.80;39.50
19908;DHT22;10116;53.112;7.356;2024-03-23T13:13:17;23.80;38.70
19908;DHT22;10116;53.112;7.356;2024-03-23T13:15:52;23.80;38.30
19908;DHT22;10116;53.112;7.356;2024-03-23T13:18:18;23.80;38.70
19908;DHT22;10116;53.112;7.356;2024-03-23T13:20:44;23.80;38.00
19908;DHT22;10116;53.112;7.356;2024-03-23T13:23:09;23.80;37.90
19908;DHT22;10116;53.112;7.356;2024-03-23T13:25:35;23.80;37.70
19908;DHT22;10116;53.112;7.356;2024-03-23T13:28:01;23.80;37.60
19908;DHT22;10116;53.112;7.356;2024-03-23T13:30:27;23.70;37.20
19908;DHT22;10116;53.112;7.356;2024-03-23T13:32:53;23.70;36.60
19908;DHT22;10116;53.112;7.356;2024-03-23T13:35:19;23.70;36.70
19908;DHT22;10116;53.112;7.356;2024-03-23T13:37:44;23.70;37.00
19908;DHT22;10116;53.112;7.356;2024-03-23T13:40:10;23.70;36.80
19908;DHT22;10116;53.112;7.356;2024-03-23T13:42:36;23.70;36.40
19908;DHT22;10116;53.112;7.356;2024-03-23T13:45:02;23.70;35.50
19908;DHT22;10116;53.112;7.356;2024-03-23T13:47:28;23.60;36.30
19908;DHT22;10116;53.112;7.356;2024-03-23T13:49:54;23.60;35.80
19908;DHT22;10116;53.112;7.356;2024-03-23T13:52:19;23.70;35.40
19908;DHT22;10116;53.112;7.356;2024-03-23T13:54:48;23.70;35.40
19908;DHT22;10116;53.112;7.356;2024-03-23T13:57:14;23.70;36.30
19908;DHT22;10116;53.112;7.356;2024-03-23T13:59:39;23.70;36.00
19908;DHT22;10116;53.112;7.356;2024-03-23T14:02:05;23.70;36.10
19908;DHT22;10116;53.112;7.356;2024-03-23T14:04:31;23.70;36.10
19908;DHT22;10116;53.112;7.356;2024-03-23T14:06:56;23.70;36.40
19908;DHT22;10116;53.112;7.356;2024-03-23T14:09:23;23.70;36.50
19908;DHT22;10116;53.112;7.356;2024-03-23T14:11:51;23.80;37.40
19908;DHT22;10116;53.112;7.356;2024-03-23T14:14:17;23.80;38.30
19908;DHT22;10116;53.112;7.356;2024-03-23T14:16:43;23.80;37.20
19908;DHT22;10116;53.112;7.356;2024-03-23T14:19:09;23.80;38.30
19908;DHT22;10116;53.112;7.356;2024-03-23T14:21:35;23.80;37.60
19908;DHT22;10116;53.112;7.356;2024-03-23T14:24:01;23.90;37.60
19908;DHT22;10116;53.112;7.356;2024-03-23T14:26:27;23.80;37.30
19908;DHT22;10116;53.112;7.356;2024-03-23T14:28:53;23.90;37.90
19908;DHT22;10116;53.112;7.356;2024-03-23T14:31:19;23.90;37.60
19908;DHT22;10116;53.112;7.356;2024-03-23T14:33:44;23.90;37.30
19908;DHT22;10116;53.112;7.356;2024-03-23T14:36:13;23.90;38.00
19908;DHT22;10116;53.112;7.356;2024-03-23T14:38:39;23.90;37.30
19908;DHT22;10116;53.112;7.356;2024-03-23T14:41:05;23.80;37.80
19908;DHT22;10116;53.112;7.356;2024-03-23T14:43:31;23.80;37.90
19908;DHT22;10116;53.112;7.356;2024-03-23T14:46:14;23.80;37.10
19908;DHT22;10116;53.112;7.356;2024-03-23T14:48:41;23.80;36.90
19908;DHT22;10116;53.112;7.356;2024-03-23T14:51:07;23.80;36.70
19908;DHT22;10116;53.112;7.356;2024-03-23T14:53:37;23.80;36.70
19908;DHT22;10116;53.112;7.356;2024-03-23T14:56:06;23.80;36.00
19908;DHT22;10116;53.112;7.356;2024-03-23T14:58:31;23.70;36.40
19908;DHT22;10116;53.112;7.356;2024-03-23T15:01:05;23.70;35.80
19908;DHT22;10116;53.112;7.356;2024-03-23T15:03:30;23.70;35.70
19908;DHT22;10116;53.112;7.356;2024-03-23T15:05:57;23.70;36.10
19908;DHT22;10116;53.112;7.356;2024-03-23T15:08:24;23.70;36.60
19908;DHT22;10116;53.112;7.356;2024-03-23T15:10:50;23.80;37.50
19908;DHT22;10116;53.112;7.356;2024-03-23T15:13:16;23.90;38.50
19908;DHT22;10116;53.112;7.356;2024-03-23T15:15:42;23.90;38.40
19908;DHT22;10116;53.112;7.356;2024-03-23T15:18:13;23.90;39.20
19908;DHT22;10116;53.112;7.356;2024-03-23T15:20:40;23.90;39.40
19908;DHT22;10116;53.112;7.356;2024-03-23T15:23:06;23.90;39.80
19908;DHT22;10116;53.112;7.356;2024-03-23T15:25:32;23.90;52.80
19908;DHT22;10116;53.112;7.356;2024-03-23T15:27:58;24.00;39.80
19908;DHT22;10116;53.112;7.356;2024-03-23T15:30:25;24.00;39.90
19908;DHT22;10116;53.112;7.356;2024-03-23T15:32:50;24.00;40.20
19908;DHT22;10116;53.112;7.356;2024-03-23T15:35:16;24.00;40.80
19908;DHT22;10116;53.112;7.356;2024-03-23T15:37:41;23.90;38.90
19908;DHT22;10116;53.112;7.356;2024-03-23T15:40:08;23.90;38.80
19908;DHT22;10116;53.112;7.356;2024-03-23T15:42:35;23.90;38.90
19908;DHT22;10116;53.112;7.356;2024-03-23T15:45:01;24.00;38.90
19908;DHT22;10116;53.112;7.356;2024-03-23T15:47:29;23.90;40.00
19908;DHT22;10116;53.112;7.356;2024-03-23T15:49:54;24.00;39.80
19908;DHT22;10116;53.112;7.356;2024-03-23T15:52:21;24.00;39.20
19908;DHT22;10116;53.112;7.356;2024-03-23T15:54:46;24.00;39.60
19908;DHT22;10116;53.112;7.356;2024-03-23T15:57:12;24.00;39.70
19908;DHT22;10116;53.112;7.356;2024-03-23T15:59:41;23.90;39.70
19908;DHT22;10116;53.112;7.356;2024-03-23T16:02:06;23.90;38.90
19908;DHT22;10116;53.112;7.356;2024-03-23T16:04:32;24.00;41.70
19908;DHT22;10116;53.112;7.356;2024-03-23T16:06:57;23.90;38.40
19908;DHT22;10116;53.112;7.356;2024-03-23T16:09:23;23.90;38.40
19908;DHT22;10116;53.112;7.356;2024-03-23T16:11:49;23.90;39.50
19908;DHT22;10116;53.112;7.356;2024-03-23T16:14:14;23.90;37.60
19908;DHT22;10116;53.112;7.356;2024-03-23T16:16:40;23.90;37.70
19908;DHT22;10116;53.112;7.356;2024-03-23T16:19:05;23.90;37.90
19908;DHT22;10116;53.112;7.356;2024-03-23T16:21:32;23.90;37.90
19908;DHT22;10116;53.112;7.356;2024-03-23T16:23:57;23.90;38.20
19908;DHT22;10116;53.112;7.356;2024-03-23T16:26:23;23.90;38.20
19908;DHT22;10116;53.112;7.356;2024-03-23T16:28:49;23.90;38.70
19908;DHT22;10116;53.112;7.356;2024-03-23T16:31:15;24.00;39.30